sensor_id;sensor_type;location;lat;lon;timestamp;P1;durP1;ratioP1;P2;durP2;ratioP2
18973;SDS011;9621;48.690;9.466;2023-04-01T00:00:58;2.20;;;0.70;;
18973;SDS011;9621;48.690;9.466;2023-04-01T00:03:27;3.00;;;0.80;;
18973;SDS011;9621;48.690;9.466;2023-04-01T00:05:56;5.30;;;1.00;;
18973;SDS011;9621;48.690;9.466;2023-04-01T00:08:25;3.43;;;1.00;;
18973;SDS011;9621;48.690;9.466;2023-04-01T00:10:52;1.70;;;0.90;;
18973;SDS011;9621;48.690;9.466;2023-04-01T00:13:19;2.93;;;0.83;;
18973;SDS011;9621;48.690;9.466;2023-04-01T00:15:47;2.63;;;0.87;;
18973;SDS011;9621;48.690;9.466;2023-04-01T00:18:14;6.40;;;0.90;;
18973;SDS011;9621;48.690;9.466;2023-04-01T00:20:43;2.17;;;0.90;;
18973;SDS011;9621;48.690;9.466;2023-04-01T00:23:11;2.03;;;0.90;;
18973;SDS011;9621;48.690;9.466;2023-04-01T00:25:40;2.70;;;0.80;;
18973;SDS011;9621;48.690;9.466;2023-04-01T00:28:07;3.87;;;1.20;;
18973;SDS011;9621;48.690;9.466;2023-04-01T00:30:35;3.83;;;0.80;;
18973;SDS011;9621;48.690;9.466;2023-04-01T00:33:02;3.00;;;0.90;;
18973;SDS011;9621;48.690;9.466;2023-04-01T00:35:29;2.47;;;0.77;;
18973;SDS011;9621;48.690;9.466;2023-04-01T00:37:57;2.80;;;0.70;;
18973;SDS011;9621;48.690;9.466;2023-04-01T00:40:25;2.43;;;0.70;;
18973;SDS011;9621;48.690;9.466;2023-04-01T00:42:55;1.93;;;0.90;;
18973;SDS011;9621;48.690;9.466;2023-04-01T00:45:27;1.27;;;0.60;;
18973;SDS011;9621;48.690;9.466;2023-04-01T00:47:56;1.53;;;0.90;;
18973;SDS011;9621;48.690;9.466;2023-04-01T00:50:28;3.38;;;1.25;;
18973;SDS011;9621;48.690;9.466;2023-04-01T00:52:56;2.50;;;1.00;;
18973;SDS011;9621;48.690;9.466;2023-04-01T00:55:25;1.10;;;0.57;;
18973;SDS011;9621;48.690;9.466;2023-04-01T00:57:55;3.13;;;0.80;;
18973;SDS011;9621;48.690;9.466;2023-04-01T01:00:25;3.33;;;0.70;;
18973;SDS011;9621;48.690;9.466;2023-04-01T01:02:52;5.47;;;0.70;;
18973;SDS011;9621;48.690;9.466;2023-04-01T01:05:21;2.07;;;0.80;;
18973;SDS011;9621;48.690;9.466;2023-04-01T01:08:02;3.73;;;0.73;;
18973;SDS011;9621;48.690;9.466;2023-04-01T01:10:35;2.03;;;0.77;;
18973;SDS011;9621;48.690;9.466;2023-04-01T01:13:08;1.20;;;0.83;;
18973;SDS011;9621;48.690;9.466;2023-04-01T01:15:41;2.30;;;0.70;;
18973;SDS011;9621;48.690;9.466;2023-04-01T01:18:14;3.47;;;0.70;;
18973;SDS011;9621;48.690;9.466;2023-04-01T01:23:52;4.90;;;0.80;;
18973;SDS011;9621;48.690;9.466;2023-04-01T01:29:27;2.27;;;0.90;;
18973;SDS011;9621;48.690;9.466;2023-04-01T01:32:10;1.77;;;0.70;;
18973;SDS011;9621;48.690;9.466;2023-04-01T01:34:47;2.60;;;0.70;;
18973;SDS011;9621;48.690;9.466;2023-04-01T01:37:22;2.47;;;1.00;;
18973;SDS011;9621;48.690;9.466;2023-04-01T01:39:54;1.30;;;0.70;;
18973;SDS011;9621;48.690;9.466;2023-04-01T01:42:23;3.57;;;0.87;;
18973;SDS011;9621;48.690;9.466;2023-04-01T01:44:52;1.30;;;0.60;;
18973;SDS011;9621;48.690;9.466;2023-04-01T01:47:21;1.30;;;0.80;;
18973;SDS011;9621;48.690;9.466;2023-04-01T01:49:49;2.37;;;0.73;;
18973;SDS011;9621;48.690;9.466;2023-04-01T01:52:18;1.70;;;0.63;;
18973;SDS011;9621;48.690;9.466;2023-04-01T01:54:49;1.53;;;0.70;;
18973;SDS011;9621;48.690;9.466;2023-04-01T01:57:17;0.90;;;0.60;;
18973;SDS011;9621;48.690;9.466;2023-04-01T01:59:48;1.27;;;0.80;;
18973;SDS011;9621;48.690;9.466;2023-04-01T02:02:18;3.63;;;0.67;;
18973;SDS011;9621;48.690;9.466;2023-04-01T02:04:47;2.30;;;0.70;;
18973;SDS011;9621;48.690;9.466;2023-04-01T02:07:16;1.63;;;0.57;;
18973;SDS011;9621;48.690;9.466;2023-04-01T02:09:47;1.70;;;0.80;;
18973;SDS011;9621;48.690;9.466;2023-04-01T02:12:16;2.73;;;0.60;;
18973;SDS011;9621;48.690;9.466;2023-04-01T02:14:47;2.63;;;0.70;;
18973;SDS011;9621;48.690;9.466;2023-04-01T02:17:19;1.97;;;0.90;;
18973;SDS011;9621;48.690;9.466;2023-04-01T02:19:48;2.10;;;0.70;;
18973;SDS011;9621;48.690;9.466;2023-04-01T02:22:18;3.20;;;0.77;;
18973;SDS011;9621;48.690;9.466;2023-04-01T02:24:50;0.83;;;0.60;;
18973;SDS011;9621;48.690;9.466;2023-04-01T02:27:20;3.07;;;0.70;;
18973;SDS011;9621;48.690;9.466;2023-04-01T02:29:47;1.87;;;0.80;;
18973;SDS011;9621;48.690;9.466;2023-04-01T02:32:14;3.43;;;0.70;;
18973;SDS011;9621;48.690;9.466;2023-04-01T02:34:43;3.23;;;0.77;;
18973;SDS011;9621;48.690;9.466;2023-04-01T02:37:11;0.53;;;0.53;;
18973;SDS011;9621;48.690;9.466;2023-04-01T02:39:39;5.17;;;0.80;;
18973;SDS011;9621;48.690;9.466;2023-04-01T02:42:09;2.20;;;0.80;;
18973;SDS011;9621;48.690;9.466;2023-04-01T02:44:36;0.70;;;0.50;;
18973;SDS011;9621;48.690;9.466;2023-04-01T02:47:03;2.00;;;0.60;;
18973;SDS011;9621;48.690;9.466;2023-04-01T02:49:30;1.67;;;0.50;;
18973;SDS011;9621;48.690;9.466;2023-04-01T02:51:57;0.60;;;0.60;;
18973;SDS011;9621;48.690;9.466;2023-04-01T02:54:24;1.17;;;0.60;;
18973;SDS011;9621;48.690;9.466;2023-04-01T02:56:51;4.27;;;0.60;;
18973;SDS011;9621;48.690;9.466;2023-04-01T02:59:19;1.60;;;0.80;;
18973;SDS011;9621;48.690;9.466;2023-04-01T03:01:46;0.80;;;0.53;;
18973;SDS011;9621;48.690;9.466;2023-04-01T03:04:13;1.70;;;0.50;;
18973;SDS011;9621;48.690;9.466;2023-04-01T03:06:40;1.03;;;0.50;;
18973;SDS011;9621;48.690;9.466;2023-04-01T03:09:07;0.40;;;0.40;;
18973;SDS011;9621;48.690;9.466;2023-04-01T03:11:34;1.30;;;0.60;;
18973;SDS011;9621;48.690;9.466;2023-04-01T03:14:01;1.30;;;0.50;;
18973;SDS011;9621;48.690;9.466;2023-04-01T03:16:29;0.83;;;0.50;;
18973;SDS011;9621;48.690;9.466;2023-04-01T03:18:56;0.40;;;0.40;;
18973;SDS011;9621;48.690;9.466;2023-04-01T03:21:25;0.70;;;0.50;;
18973;SDS011;9621;48.690;9.466;2023-04-01T03:23:52;1.33;;;0.53;;
18973;SDS011;9621;48.690;9.466;2023-04-01T03:26:19;0.40;;;0.40;;
18973;SDS011;9621;48.690;9.466;2023-04-01T03:28:46;1.27;;;0.50;;
18973;SDS011;9621;48.690;9.466;2023-04-01T03:31:13;1.73;;;0.50;;
18973;SDS011;9621;48.690;9.466;2023-04-01T03:33:42;2.30;;;0.60;;
18973;SDS011;9621;48.690;9.466;2023-04-01T03:36:09;1.60;;;0.57;;
18973;SDS011;9621;48.690;9.466;2023-04-01T03:38:37;1.13;;;0.50;;
18973;SDS011;9621;48.690;9.466;2023-04-01T03:41:04;1.77;;;0.50;;
18973;SDS011;9621;48.690;9.466;2023-04-01T03:43:31;0.97;;;0.50;;
18973;SDS011;9621;48.690;9.466;2023-04-01T03:45:59;0.60;;;0.60;;
18973;SDS011;9621;48.690;9.466;2023-04-01T03:48:26;1.20;;;0.50;;
18973;SDS011;9621;48.690;9.466;2023-04-01T03:50:55;1.23;;;0.57;;
18973;SDS011;9621;48.690;9.466;2023-04-01T03:53:22;2.50;;;0.53;;
18973;SDS011;9621;48.690;9.466;2023-04-01T03:55:49;1.07;;;0.60;;
18973;SDS011;9621;48.690;9.466;2023-04-01T03:58:16;0.40;;;0.40;;
18973;SDS011;9621;48.690;9.466;2023-04-01T04:00:44;2.10;;;0.60;;
18973;SDS011;9621;48.690;9.466;2023-04-01T04:03:11;1.10;;;0.40;;
18973;SDS011;9621;48.690;9.466;2023-04-01T04:05:40;0.83;;;0.50;;
18973;SDS011;9621;48.690;9.466;2023-04-01T04:08:13;1.23;;;0.60;;
18973;SDS011;9621;48.690;9.466;2023-04-01T04:10:41;0.97;;;0.50;;
18973;SDS011;9621;48.690;9.466;2023-04-01T04:13:08;0.40;;;0.40;;
18973;SDS011;9621;48.690;9.466;2023-04-01T04:15:34;0.53;;;0.50;;
18973;SDS011;9621;48.690;9.466;2023-04-01T04:18:01;4.13;;;0.60;;
18973;SDS011;9621;48.690;9.466;2023-04-01T04:20:28;0.40;;;0.40;;
18973;SDS011;9621;48.690;9.466;2023-04-01T04:22:55;0.93;;;0.90;;
18973;SDS011;9621;48.690;9.466;2023-04-01T04:25:23;1.30;;;0.57;;
18973;SDS011;9621;48.690;9.466;2023-04-01T04:27:50;1.13;;;0.50;;
18973;SDS011;9621;48.690;9.466;2023-04-01T04:30:17;1.90;;;0.57;;
18973;SDS011;9621;48.690;9.466;2023-04-01T04:32:44;1.83;;;0.60;;
18973;SDS011;9621;48.690;9.466;2023-04-01T04:35:11;2.47;;;0.60;;
18973;SDS011;9621;48.690;9.466;2023-04-01T04:37:38;0.80;;;0.50;;
18973;SDS011;9621;48.690;9.466;2023-04-01T04:40:05;0.50;;;0.50;;
18973;SDS011;9621;48.690;9.466;2023-04-01T04:42:35;0.80;;;0.60;;
18973;SDS011;9621;48.690;9.466;2023-04-01T04:45:02;2.03;;;0.50;;
18973;SDS011;9621;48.690;9.466;2023-04-01T04:47:29;0.77;;;0.67;;
18973;SDS011;9621;48.690;9.466;2023-04-01T04:49:57;2.37;;;0.67;;
18973;SDS011;9621;48.690;9.466;2023-04-01T04:52:24;2.70;;;0.60;;
18973;SDS011;9621;48.690;9.466;2023-04-01T04:54:51;1.20;;;0.60;;
18973;SDS011;9621;48.690;9.466;2023-04-01T04:57:18;1.67;;;0.70;;
18973;SDS011;9621;48.690;9.466;2023-04-01T04:59:46;3.33;;;0.80;;
18973;SDS011;9621;48.690;9.466;2023-04-01T05:02:13;3.03;;;0.60;;
18973;SDS011;9621;48.690;9.466;2023-04-01T05:04:39;1.43;;;0.80;;
18973;SDS011;9621;48.690;9.466;2023-04-01T05:07:06;0.73;;;0.50;;
18973;SDS011;9621;48.690;9.466;2023-04-01T05:09:33;1.50;;;0.60;;
18973;SDS011;9621;48.690;9.466;2023-04-01T05:12:00;1.77;;;0.80;;
18973;SDS011;9621;48.690;9.466;2023-04-01T05:14:27;2.80;;;0.60;;
18973;SDS011;9621;48.690;9.466;2023-04-01T05:16:56;1.50;;;0.70;;
18973;SDS011;9621;48.690;9.466;2023-04-01T05:19:23;1.70;;;0.73;;
18973;SDS011;9621;48.690;9.466;2023-04-01T05:21:50;3.33;;;0.80;;
18973;SDS011;9621;48.690;9.466;2023-04-01T05:24:17;2.53;;;0.90;;
18973;SDS011;9621;48.690;9.466;2023-04-01T05:26:44;2.03;;;0.67;;
18973;SDS011;9621;48.690;9.466;2023-04-01T05:29:11;2.17;;;0.83;;
18973;SDS011;9621;48.690;9.466;2023-04-01T05:31:38;3.00;;;0.80;;
18973;SDS011;9621;48.690;9.466;2023-04-01T05:34:06;1.63;;;0.60;;
18973;SDS011;9621;48.690;9.466;2023-04-01T05:36:33;1.53;;;0.67;;
18973;SDS011;9621;48.690;9.466;2023-04-01T05:39:00;1.33;;;0.90;;
18973;SDS011;9621;48.690;9.466;2023-04-01T05:41:28;2.90;;;0.70;;
18973;SDS011;9621;48.690;9.466;2023-04-01T05:43:55;3.03;;;0.80;;
18973;SDS011;9621;48.690;9.466;2023-04-01T05:46:22;1.17;;;0.63;;
18973;SDS011;9621;48.690;9.466;2023-04-01T05:48:48;3.00;;;0.97;;
18973;SDS011;9621;48.690;9.466;2023-04-01T05:51:17;3.27;;;0.70;;
18973;SDS011;9621;48.690;9.466;2023-04-01T05:53:44;1.63;;;0.60;;
18973;SDS011;9621;48.690;9.466;2023-04-01T05:56:10;0.97;;;0.53;;
18973;SDS011;9621;48.690;9.466;2023-04-01T05:58:38;1.00;;;0.70;;
18973;SDS011;9621;48.690;9.466;2023-04-01T06:01:06;1.80;;;0.70;;
18973;SDS011;9621;48.690;9.466;2023-04-01T06:03:36;2.10;;;0.83;;
18973;SDS011;9621;48.690;9.466;2023-04-01T06:06:03;1.90;;;0.60;;
18973;SDS011;9621;48.690;9.466;2023-04-01T06:08:31;2.27;;;0.50;;
18973;SDS011;9621;48.690;9.466;2023-04-01T06:11:01;1.57;;;0.67;;
18973;SDS011;9621;48.690;9.466;2023-04-01T06:13:48;1.53;;;0.60;;
18973;SDS011;9621;48.690;9.466;2023-04-01T06:16:44;1.97;;;0.70;;
18973;SDS011;9621;48.690;9.466;2023-04-01T06:19:27;5.33;;;1.23;;
18973;SDS011;9621;48.690;9.466;2023-04-01T06:25:16;1.07;;;0.50;;
18973;SDS011;9621;48.690;9.466;2023-04-01T06:27:54;1.00;;;0.60;;
18973;SDS011;9621;48.690;9.466;2023-04-01T06:30:33;1.17;;;0.67;;
18973;SDS011;9621;48.690;9.466;2023-04-01T06:33:16;0.70;;;0.53;;
18973;SDS011;9621;48.690;9.466;2023-04-01T06:38:51;1.30;;;0.60;;
18973;SDS011;9621;48.690;9.466;2023-04-01T06:41:34;0.50;;;0.50;;
18973;SDS011;9621;48.690;9.466;2023-04-01T06:44:17;0.60;;;0.50;;
18973;SDS011;9621;48.690;9.466;2023-04-01T06:46:56;1.00;;;0.90;;
18973;SDS011;9621;48.690;9.466;2023-04-01T06:49:29;0.80;;;0.50;;
18973;SDS011;9621;48.690;9.466;2023-04-01T06:52:09;1.52;;;0.63;;
18973;SDS011;9621;48.690;9.466;2023-04-01T06:54:47;2.00;;;0.65;;
18973;SDS011;9621;48.690;9.466;2023-04-01T06:57:20;1.52;;;0.65;;
18973;SDS011;9621;48.690;9.466;2023-04-01T06:59:53;3.00;;;0.60;;
18973;SDS011;9621;48.690;9.466;2023-04-01T07:02:24;1.93;;;0.73;;
18973;SDS011;9621;48.690;9.466;2023-04-01T07:04:58;3.70;;;0.73;;
18973;SDS011;9621;48.690;9.466;2023-04-01T07:07:29;2.20;;;0.88;;
18973;SDS011;9621;48.690;9.466;2023-04-01T07:10:02;0.90;;;0.53;;
18973;SDS011;9621;48.690;9.466;2023-04-01T07:12:40;1.00;;;0.60;;
18973;SDS011;9621;48.690;9.466;2023-04-01T07:15:15;0.93;;;0.80;;
18973;SDS011;9621;48.690;9.466;2023-04-01T07:17:45;3.92;;;0.70;;
18973;SDS011;9621;48.690;9.466;2023-04-01T07:20:17;1.25;;;0.70;;
18973;SDS011;9621;48.690;9.466;2023-04-01T07:22:49;1.80;;;0.80;;
18973;SDS011;9621;48.690;9.466;2023-04-01T07:25:19;2.42;;;0.52;;
18973;SDS011;9621;48.690;9.466;2023-04-01T07:27:51;2.00;;;0.70;;
18973;SDS011;9621;48.690;9.466;2023-04-01T07:30:20;1.20;;;0.63;;
18973;SDS011;9621;48.690;9.466;2023-04-01T07:32:49;1.02;;;0.50;;
18973;SDS011;9621;48.690;9.466;2023-04-01T07:35:23;1.93;;;0.50;;
18973;SDS011;9621;48.690;9.466;2023-04-01T07:37:56;1.67;;;0.50;;
18973;SDS011;9621;48.690;9.466;2023-04-01T07:40:32;1.13;;;0.50;;
18973;SDS011;9621;48.690;9.466;2023-04-01T07:46:10;2.10;;;0.82;;
18973;SDS011;9621;48.690;9.466;2023-04-01T07:48:46;3.70;;;0.70;;
18973;SDS011;9621;48.690;9.466;2023-04-01T07:51:23;1.17;;;0.63;;
18973;SDS011;9621;48.690;9.466;2023-04-01T07:53:58;1.07;;;0.50;;
18973;SDS011;9621;48.690;9.466;2023-04-01T07:56:30;1.95;;;0.73;;
18973;SDS011;9621;48.690;9.466;2023-04-01T07:59:06;2.60;;;1.00;;
18973;SDS011;9621;48.690;9.466;2023-04-01T08:01:40;3.10;;;0.82;;
18973;SDS011;9621;48.690;9.466;2023-04-01T08:07:03;3.93;;;0.80;;
18973;SDS011;9621;48.690;9.466;2023-04-01T08:09:36;0.73;;;0.50;;
18973;SDS011;9621;48.690;9.466;2023-04-01T08:12:12;2.58;;;0.85;;
18973;SDS011;9621;48.690;9.466;2023-04-01T08:14:49;2.83;;;0.70;;
18973;SDS011;9621;48.690;9.466;2023-04-01T08:17:26;1.50;;;0.70;;
18973;SDS011;9621;48.690;9.466;2023-04-01T08:20:03;1.92;;;0.77;;
18973;SDS011;9621;48.690;9.466;2023-04-01T08:22:48;2.03;;;0.70;;
18973;SDS011;9621;48.690;9.466;2023-04-01T08:25:19;2.83;;;0.93;;
18973;SDS011;9621;48.690;9.466;2023-04-01T08:27:51;0.93;;;0.70;;
18973;SDS011;9621;48.690;9.466;2023-04-01T08:30:23;2.55;;;0.73;;
18973;SDS011;9621;48.690;9.466;2023-04-01T08:32:54;1.95;;;0.70;;
18973;SDS011;9621;48.690;9.466;2023-04-01T08:35:27;1.88;;;0.82;;
18973;SDS011;9621;48.690;9.466;2023-04-01T08:37:57;1.80;;;0.77;;
18973;SDS011;9621;48.690;9.466;2023-04-01T08:40:33;1.85;;;0.65;;
18973;SDS011;9621;48.690;9.466;2023-04-01T08:43:14;0.97;;;0.60;;
18973;SDS011;9621;48.690;9.466;2023-04-01T08:45:56;1.00;;;0.60;;
18973;SDS011;9621;48.690;9.466;2023-04-01T08:48:44;1.98;;;0.77;;
18973;SDS011;9621;48.690;9.466;2023-04-01T08:51:38;0.82;;;0.50;;
18973;SDS011;9621;48.690;9.466;2023-04-01T08:54:25;3.27;;;0.70;;
18973;SDS011;9621;48.690;9.466;2023-04-01T08:57:13;0.83;;;0.50;;
18973;SDS011;9621;48.690;9.466;2023-04-01T08:59:50;0.90;;;0.60;;
18973;SDS011;9621;48.690;9.466;2023-04-01T09:02:46;1.53;;;0.60;;
18973;SDS011;9621;48.690;9.466;2023-04-01T09:05:28;0.93;;;0.50;;
18973;SDS011;9621;48.690;9.466;2023-04-01T09:08:05;3.20;;;0.73;;
18973;SDS011;9621;48.690;9.466;2023-04-01T09:10:49;0.50;;;0.50;;
18973;SDS011;9621;48.690;9.466;2023-04-01T09:13:27;1.10;;;0.60;;
18973;SDS011;9621;48.690;9.466;2023-04-01T09:16:11;2.50;;;0.87;;
18973;SDS011;9621;48.690;9.466;2023-04-01T09:18:48;3.40;;;0.80;;
18973;SDS011;9621;48.690;9.466;2023-04-01T09:21:31;1.33;;;0.60;;
18973;SDS011;9621;48.690;9.466;2023-04-01T09:24:12;2.10;;;0.70;;
18973;SDS011;9621;48.690;9.466;2023-04-01T09:27:02;1.80;;;0.60;;
18973;SDS011;9621;48.690;9.466;2023-04-01T09:29:40;0.93;;;0.50;;
18973;SDS011;9621;48.690;9.466;2023-04-01T09:32:33;1.37;;;0.70;;
18973;SDS011;9621;48.690;9.466;2023-04-01T09:35:19;1.48;;;0.70;;
18973;SDS011;9621;48.690;9.466;2023-04-01T09:37:53;1.93;;;0.63;;
18973;SDS011;9621;48.690;9.466;2023-04-01T09:40:34;0.80;;;0.70;;
18973;SDS011;9621;48.690;9.466;2023-04-01T09:43:20;1.03;;;0.53;;
18973;SDS011;9621;48.690;9.466;2023-04-01T09:45:56;0.70;;;0.60;;
18973;SDS011;9621;48.690;9.466;2023-04-01T09:48:39;0.50;;;0.50;;
18973;SDS011;9621;48.690;9.466;2023-04-01T09:51:22;1.37;;;0.70;;
18973;SDS011;9621;48.690;9.466;2023-04-01T09:54:01;0.63;;;0.60;;
18973;SDS011;9621;48.690;9.466;2023-04-01T09:56:52;1.23;;;0.70;;
18973;SDS011;9621;48.690;9.466;2023-04-01T09:59:47;1.20;;;0.60;;
18973;SDS011;9621;48.690;9.466;2023-04-01T10:05:50;2.42;;;0.60;;
18973;SDS011;9621;48.690;9.466;2023-04-01T10:08:45;3.00;;;0.60;;
18973;SDS011;9621;48.690;9.466;2023-04-01T10:11:55;0.67;;;0.67;;
18973;SDS011;9621;48.690;9.466;2023-04-01T10:14:59;2.10;;;1.07;;
18973;SDS011;9621;48.690;9.466;2023-04-01T10:18:01;0.60;;;0.60;;
18973;SDS011;9621;48.690;9.466;2023-04-01T10:20:59;2.60;;;0.80;;
18973;SDS011;9621;48.690;9.466;2023-04-01T10:23:55;1.53;;;0.80;;
18973;SDS011;9621;48.690;9.466;2023-04-01T10:29:52;0.93;;;0.50;;
18973;SDS011;9621;48.690;9.466;2023-04-01T10:32:43;2.73;;;0.63;;
18973;SDS011;9621;48.690;9.466;2023-04-01T10:41:50;0.93;;;0.53;;
18973;SDS011;9621;48.690;9.466;2023-04-01T10:45:00;0.80;;;0.50;;
18973;SDS011;9621;48.690;9.466;2023-04-01T10:47:55;1.27;;;0.70;;
18973;SDS011;9621;48.690;9.466;2023-04-01T10:53:37;2.17;;;0.70;;
18973;SDS011;9621;48.690;9.466;2023-04-01T10:56:21;0.97;;;0.50;;
18973;SDS011;9621;48.690;9.466;2023-04-01T10:59:13;0.85;;;0.60;;
18973;SDS011;9621;48.690;9.466;2023-04-01T11:11:44;1.67;;;0.60;;
18973;SDS011;9621;48.690;9.466;2023-04-01T11:18:00;1.80;;;0.60;;
18973;SDS011;9621;48.690;9.466;2023-04-01T11:24:17;0.60;;;0.50;;
18973;SDS011;9621;48.690;9.466;2023-04-01T11:27:06;0.85;;;0.60;;
18973;SDS011;9621;48.690;9.466;2023-04-01T11:29:44;1.17;;;0.47;;
18973;SDS011;9621;48.690;9.466;2023-04-01T11:32:39;0.98;;;0.52;;
18973;SDS011;9621;48.690;9.466;2023-04-01T11:38:19;1.33;;;0.60;;
18973;SDS011;9621;48.690;9.466;2023-04-01T11:40:59;1.00;;;0.77;;
18973;SDS011;9621;48.690;9.466;2023-04-01T11:43:39;1.23;;;0.50;;
18973;SDS011;9621;48.690;9.466;2023-04-01T11:46:11;0.95;;;0.50;;
18973;SDS011;9621;48.690;9.466;2023-04-01T11:48:51;0.98;;;0.60;;
18973;SDS011;9621;48.690;9.466;2023-04-01T11:54:28;1.60;;;0.60;;
18973;SDS011;9621;48.690;9.466;2023-04-01T11:57:12;1.13;;;0.65;;
18973;SDS011;9621;48.690;9.466;2023-04-01T12:00:02;0.50;;;0.50;;
18973;SDS011;9621;48.690;9.466;2023-04-01T12:02:48;0.50;;;0.50;;
18973;SDS011;9621;48.690;9.466;2023-04-01T12:05:36;0.45;;;0.45;;
18973;SDS011;9621;48.690;9.466;2023-04-01T12:10:59;0.40;;;0.40;;
18973;SDS011;9621;48.690;9.466;2023-04-01T12:13:33;0.70;;;0.50;;
18973;SDS011;9621;48.690;9.466;2023-04-01T12:16:20;0.57;;;0.50;;
18973;SDS011;9621;48.690;9.466;2023-04-01T12:19:09;0.40;;;0.40;;
18973;SDS011;9621;48.690;9.466;2023-04-01T12:21:43;0.43;;;0.43;;
18973;SDS011;9621;48.690;9.466;2023-04-01T12:27:26;0.57;;;0.50;;
18973;SDS011;9621;48.690;9.466;2023-04-01T12:30:12;0.57;;;0.57;;
18973;SDS011;9621;48.690;9.466;2023-04-01T12:32:55;0.50;;;0.50;;
18973;SDS011;9621;48.690;9.466;2023-04-01T12:35:32;0.88;;;0.60;;
18973;SDS011;9621;48.690;9.466;2023-04-01T12:38:15;0.50;;;0.50;;
18973;SDS011;9621;48.690;9.466;2023-04-01T12:41:05;1.17;;;0.50;;
18973;SDS011;9621;48.690;9.466;2023-04-01T12:46:46;0.90;;;0.50;;
18973;SDS011;9621;48.690;9.466;2023-04-01T12:52:20;1.33;;;0.40;;
18973;SDS011;9621;48.690;9.466;2023-04-01T13:00:54;2.75;;;0.90;;
18973;SDS011;9621;48.690;9.466;2023-04-01T13:03:36;0.95;;;0.70;;
18973;SDS011;9621;48.690;9.466;2023-04-01T13:06:26;0.77;;;0.77;;
18973;SDS011;9621;48.690;9.466;2023-04-01T13:09:01;1.20;;;1.10;;
18973;SDS011;9621;48.690;9.466;2023-04-01T13:11:45;0.45;;;0.45;;
18973;SDS011;9621;48.690;9.466;2023-04-01T13:17:25;1.23;;;0.50;;
18973;SDS011;9621;48.690;9.466;2023-04-01T13:19:58;0.50;;;0.40;;
18973;SDS011;9621;48.690;9.466;2023-04-01T13:22:39;0.50;;;0.50;;
18973;SDS011;9621;48.690;9.466;2023-04-01T13:25:18;0.40;;;0.40;;
18973;SDS011;9621;48.690;9.466;2023-04-01T13:27:54;0.73;;;0.43;;
18973;SDS011;9621;48.690;9.466;2023-04-01T13:30:30;0.40;;;0.40;;
18973;SDS011;9621;48.690;9.466;2023-04-01T13:33:04;0.90;;;0.50;;
18973;SDS011;9621;48.690;9.466;2023-04-01T13:35:41;0.40;;;0.40;;
18973;SDS011;9621;48.690;9.466;2023-04-01T13:38:24;1.23;;;0.38;;
18973;SDS011;9621;48.690;9.466;2023-04-01T13:41:09;0.30;;;0.30;;
18973;SDS011;9621;48.690;9.466;2023-04-01T13:43:48;0.50;;;0.40;;
18973;SDS011;9621;48.690;9.466;2023-04-01T13:46:33;0.35;;;0.35;;
18973;SDS011;9621;48.690;9.466;2023-04-01T13:49:22;0.63;;;0.40;;
18973;SDS011;9621;48.690;9.466;2023-04-01T13:52:19;0.40;;;0.40;;
18973;SDS011;9621;48.690;9.466;2023-04-01T13:55:04;1.38;;;0.40;;
18973;SDS011;9621;48.690;9.466;2023-04-01T13:58:17;0.40;;;0.40;;
18973;SDS011;9621;48.690;9.466;2023-04-01T14:01:00;0.63;;;0.40;;
18973;SDS011;9621;48.690;9.466;2023-04-01T14:03:38;1.95;;;0.52;;
18973;SDS011;9621;48.690;9.466;2023-04-01T14:06:19;0.75;;;0.50;;
18973;SDS011;9621;48.690;9.466;2023-04-01T14:08:58;0.50;;;0.50;;
18973;SDS011;9621;48.690;9.466;2023-04-01T14:11:39;1.70;;;0.50;;
18973;SDS011;9621;48.690;9.466;2023-04-01T14:14:14;0.50;;;0.47;;
18973;SDS011;9621;48.690;9.466;2023-04-01T14:17:03;0.55;;;0.40;;
18973;SDS011;9621;48.690;9.466;2023-04-01T14:20:03;0.50;;;0.50;;
18973;SDS011;9621;48.690;9.466;2023-04-01T14:22:54;0.93;;;0.40;;
18973;SDS011;9621;48.690;9.466;2023-04-01T14:25:39;2.33;;;0.40;;
18973;SDS011;9621;48.690;9.466;2023-04-01T14:28:29;0.90;;;0.40;;
18973;SDS011;9621;48.690;9.466;2023-04-01T14:31:15;0.65;;;0.43;;
18973;SDS011;9621;48.690;9.466;2023-04-01T14:33:54;1.27;;;0.40;;
18973;SDS011;9621;48.690;9.466;2023-04-01T14:36:47;0.90;;;0.52;;
18973;SDS011;9621;48.690;9.466;2023-04-01T14:39:28;0.52;;;0.40;;
18973;SDS011;9621;48.690;9.466;2023-04-01T14:42:16;0.60;;;0.40;;
18973;SDS011;9621;48.690;9.466;2023-04-01T14:44:58;0.70;;;0.47;;
18973;SDS011;9621;48.690;9.466;2023-04-01T14:47:39;0.98;;;0.40;;
18973;SDS011;9621;48.690;9.466;2023-04-01T14:50:12;0.55;;;0.50;;
18973;SDS011;9621;48.690;9.466;2023-04-01T14:52:42;0.40;;;0.40;;
18973;SDS011;9621;48.690;9.466;2023-04-01T14:55:20;0.40;;;0.40;;
18973;SDS011;9621;48.690;9.466;2023-04-01T14:57:58;0.55;;;0.40;;
18973;SDS011;9621;48.690;9.466;2023-04-01T15:03:36;0.65;;;0.38;;
18973;SDS011;9621;48.690;9.466;2023-04-01T15:06:22;0.40;;;0.40;;
18973;SDS011;9621;48.690;9.466;2023-04-01T15:09:07;0.57;;;0.45;;
18973;SDS011;9621;48.690;9.466;2023-04-01T15:11:43;1.27;;;0.50;;
18973;SDS011;9621;48.690;9.466;2023-04-01T15:14:25;1.00;;;0.47;;
18973;SDS011;9621;48.690;9.466;2023-04-01T15:20:10;1.25;;;0.70;;
18973;SDS011;9621;48.690;9.466;2023-04-01T15:22:55;1.08;;;0.50;;
18973;SDS011;9621;48.690;9.466;2023-04-01T15:25:35;0.98;;;0.50;;
18973;SDS011;9621;48.690;9.466;2023-04-01T15:28:15;0.73;;;0.40;;
18973;SDS011;9621;48.690;9.466;2023-04-01T15:30:51;0.40;;;0.40;;
18973;SDS011;9621;48.690;9.466;2023-04-01T15:36:18;0.82;;;0.47;;
18973;SDS011;9621;48.690;9.466;2023-04-01T15:38:56;0.57;;;0.50;;
18973;SDS011;9621;48.690;9.466;2023-04-01T15:41:35;0.68;;;0.40;;
18973;SDS011;9621;48.690;9.466;2023-04-01T15:47:05;0.50;;;0.50;;
18973;SDS011;9621;48.690;9.466;2023-04-01T15:49:52;0.82;;;0.50;;
18973;SDS011;9621;48.690;9.466;2023-04-01T15:52:23;1.30;;;0.52;;
18973;SDS011;9621;48.690;9.466;2023-04-01T15:55:19;1.08;;;0.57;;
18973;SDS011;9621;48.690;9.466;2023-04-01T15:57:55;0.98;;;0.60;;
18973;SDS011;9621;48.690;9.466;2023-04-01T16:00:41;0.68;;;0.50;;
18973;SDS011;9621;48.690;9.466;2023-04-01T16:03:20;1.00;;;0.60;;
18973;SDS011;9621;48.690;9.466;2023-04-01T16:09:19;0.80;;;0.75;;
18973;SDS011;9621;48.690;9.466;2023-04-01T16:11:56;0.80;;;0.50;;
18973;SDS011;9621;48.690;9.466;2023-04-01T16:14:33;1.33;;;0.57;;
18973;SDS011;9621;48.690;9.466;2023-04-01T16:17:17;1.90;;;0.80;;
18973;SDS011;9621;48.690;9.466;2023-04-01T16:20:07;0.70;;;0.70;;
18973;SDS011;9621;48.690;9.466;2023-04-01T16:22:45;1.73;;;1.00;;
18973;SDS011;9621;48.690;9.466;2023-04-01T16:25:24;6.22;;;2.80;;
18973;SDS011;9621;48.690;9.466;2023-04-01T16:28:03;10.20;;;7.43;;
18973;SDS011;9621;48.690;9.466;2023-04-01T16:30:42;4.07;;;3.67;;
18973;SDS011;9621;48.690;9.466;2023-04-01T16:33:15;5.88;;;3.53;;
18973;SDS011;9621;48.690;9.466;2023-04-01T16:35:49;1.83;;;1.40;;
18973;SDS011;9621;48.690;9.466;2023-04-01T16:38:23;3.20;;;2.30;;
18973;SDS011;9621;48.690;9.466;2023-04-01T16:41:00;5.35;;;3.00;;
18973;SDS011;9621;48.690;9.466;2023-04-01T16:43:38;3.05;;;2.08;;
18973;SDS011;9621;48.690;9.466;2023-04-01T16:46:19;6.43;;;3.60;;
18973;SDS011;9621;48.690;9.466;2023-04-01T16:49:00;4.20;;;2.50;;
18973;SDS011;9621;48.690;9.466;2023-04-01T16:51:37;4.75;;;2.28;;
18973;SDS011;9621;48.690;9.466;2023-04-01T16:54:13;14.35;;;7.22;;
18973;SDS011;9621;48.690;9.466;2023-04-01T16:56:47;6.25;;;4.07;;
18973;SDS011;9621;48.690;9.466;2023-04-01T16:59:19;4.43;;;2.73;;
18973;SDS011;9621;48.690;9.466;2023-04-01T17:01:50;1.35;;;1.15;;
18973;SDS011;9621;48.690;9.466;2023-04-01T17:04:23;2.67;;;0.90;;
18973;SDS011;9621;48.690;9.466;2023-04-01T17:07:00;3.97;;;1.20;;
18973;SDS011;9621;48.690;9.466;2023-04-01T17:09:41;1.57;;;0.90;;
18973;SDS011;9621;48.690;9.466;2023-04-01T17:12:19;2.60;;;0.87;;
18973;SDS011;9621;48.690;9.466;2023-04-01T17:14:54;1.63;;;0.80;;
18973;SDS011;9621;48.690;9.466;2023-04-01T17:17:35;1.27;;;0.68;;
18973;SDS011;9621;48.690;9.466;2023-04-01T17:20:12;1.35;;;0.90;;
18973;SDS011;9621;48.690;9.466;2023-04-01T17:22:52;2.20;;;0.90;;
18973;SDS011;9621;48.690;9.466;2023-04-01T17:28:17;0.90;;;0.73;;